createdAt,value
2022-10-17T00:01:06.959Z,5.63
2022-10-17T00:03:35.149Z,5.30
2022-10-17T00:06:06.868Z,5.07
2022-10-17T00:08:34.902Z,6.17
2022-10-17T00:11:07.792Z,5.50
2022-10-17T00:13:36.829Z,5.67
2022-10-17T00:16:05.226Z,5.50
2022-10-17T00:18:33.259Z,5.40
2022-10-17T00:21:01.147Z,5.77
2022-10-17T00:23:30.452Z,5.77
2022-10-17T00:26:02.110Z,5.47
2022-10-17T00:28:31.699Z,5.07
2022-10-17T00:31:01.147Z,5.30
2022-10-17T00:33:29.813Z,4.63
2022-10-17T00:36:05.645Z,5.77
2022-10-17T00:38:33.697Z,5.73
2022-10-17T00:41:01.797Z,4.87
2022-10-17T00:43:32.897Z,5.70
2022-10-17T00:46:01.005Z,5.30
2022-10-17T00:48:29.184Z,5.30
2022-10-17T00:50:57.137Z,4.83
2022-10-17T00:53:25.088Z,25.50
2022-10-17T00:55:55.245Z,6.33
2022-10-17T00:58:23.309Z,5.40
2022-10-17T01:00:52.696Z,4.57
2022-10-17T01:03:20.779Z,5.23
2022-10-17T01:05:48.753Z,4.90
2022-10-17T01:08:16.972Z,4.77
2022-10-17T01:10:55.972Z,4.67
2022-10-17T01:13:31.287Z,4.93
2022-10-17T01:16:10.225Z,4.37
2022-10-17T01:18:52.531Z,4.87
2022-10-17T01:21:39.648Z,4.77
2022-10-17T01:24:43.987Z,4.50
2022-10-17T01:27:31.044Z,4.90
2022-10-17T01:30:25.021Z,4.93
2022-10-17T01:32:58.667Z,4.63
2022-10-17T01:35:34.128Z,4.30
2022-10-17T01:38:10.573Z,4.30
2022-10-17T01:40:43.696Z,4.53
2022-10-17T01:43:17.580Z,4.33
2022-10-17T01:45:50.474Z,4.40
2022-10-17T01:48:24.382Z,3.90
2022-10-17T01:50:55.888Z,3.50
2022-10-17T01:53:29.519Z,3.57
2022-10-17T01:56:01.623Z,3.70
2022-10-17T01:58:33.827Z,3.93
2022-10-17T02:01:05.293Z,3.67
2022-10-17T02:03:36.299Z,3.27
2022-10-17T02:06:05.416Z,4.03
2022-10-17T02:08:43.707Z,3.53
2022-10-17T02:11:16.615Z,3.43
2022-10-17T02:14:17.077Z,4.00
2022-10-17T02:16:54.844Z,3.80
2022-10-17T02:19:50.001Z,3.77
2022-10-17T02:22:26.285Z,3.70
2022-10-17T02:25:01.776Z,3.23
2022-10-17T02:27:43.800Z,3.17
2022-10-17T02:30:17.611Z,3.73
2022-10-17T02:32:51.167Z,3.50
2022-10-17T02:35:22.826Z,3.33
2022-10-17T02:37:52.917Z,3.27
2022-10-17T02:40:23.724Z,3.13
2022-10-17T02:42:54.219Z,3.77
2022-10-17T02:45:26.344Z,3.50
2022-10-17T02:48:00.341Z,3.40
2022-10-17T02:50:39.975Z,3.30
2022-10-17T02:53:12.877Z,3.10
2022-10-17T02:55:44.726Z,3.10
2022-10-17T02:58:17.927Z,3.20
2022-10-17T03:00:46.513Z,3.23
2022-10-17T03:03:23.041Z,3.00
2022-10-17T03:05:52.875Z,3.10
2022-10-17T03:08:21.358Z,3.50
2022-10-17T03:10:49.334Z,3.30
2022-10-17T03:13:17.712Z,3.17
2022-10-17T03:15:45.722Z,3.50
2022-10-17T03:18:13.859Z,3.67
2022-10-17T03:20:42.013Z,3.40
2022-10-17T03:23:11.328Z,3.67
2022-10-17T03:25:39.327Z,3.80
2022-10-17T03:28:07.284Z,3.80
2022-10-17T03:30:35.355Z,3.80
2022-10-17T03:33:03.448Z,4.20
2022-10-17T03:35:31.438Z,4.03
2022-10-17T03:37:59.383Z,4.03
2022-10-17T03:40:28.746Z,4.20
2022-10-17T03:42:57.128Z,4.20
2022-10-17T03:45:25.205Z,3.40
2022-10-17T03:47:53.186Z,4.40
2022-10-17T03:50:21.066Z,3.93
2022-10-17T03:52:49.343Z,4.00
2022-10-17T03:55:18.117Z,3.90
2022-10-17T03:57:47.378Z,3.63
2022-10-17T04:00:16.155Z,4.40
2022-10-17T04:02:44.963Z,4.03
2022-10-17T04:05:13.352Z,3.87
2022-10-17T04:07:41.333Z,4.10
2022-10-17T04:10:10.963Z,3.43
2022-10-17T04:12:43.457Z,3.57
2022-10-17T04:15:13.552Z,3.93
2022-10-17T04:17:41.499Z,3.90
2022-10-17T04:20:10.277Z,3.87
2022-10-17T04:22:43.832Z,3.90
2022-10-17T04:25:11.692Z,3.97
2022-10-17T04:27:39.871Z,3.70
2022-10-17T04:30:08.896Z,3.57
2022-10-17T04:32:39.681Z,4.27
2022-10-17T04:35:08.540Z,3.83
2022-10-17T04:37:36.497Z,4.17
2022-10-17T04:40:05.024Z,4.13
2022-10-17T04:42:33.035Z,4.07
2022-10-17T04:45:00.952Z,4.20
2022-10-17T04:47:28.872Z,4.47
2022-10-17T04:49:58.234Z,4.20
2022-10-17T04:52:26.716Z,4.63
2022-10-17T04:54:54.832Z,4.37
2022-10-17T04:57:23.041Z,4.50
2022-10-17T04:59:51.128Z,4.07
2022-10-17T05:02:19.093Z,3.83
2022-10-17T05:04:47.098Z,4.23
2022-10-17T05:07:16.462Z,3.87
2022-10-17T05:09:44.369Z,4.30
2022-10-17T05:12:12.262Z,3.50
2022-10-17T05:14:40.256Z,4.20
2022-10-17T05:17:08.196Z,3.60
2022-10-17T05:19:36.253Z,4.50
2022-10-17T05:22:04.246Z,3.90
2022-10-17T05:24:33.651Z,4.30
2022-10-17T05:27:01.642Z,3.93
2022-10-17T05:29:29.554Z,4.10
2022-10-17T05:31:57.738Z,4.17
2022-10-17T05:34:25.858Z,4.13
2022-10-17T05:36:53.793Z,4.47
2022-10-17T05:39:23.469Z,3.60
2022-10-17T05:41:52.813Z,4.47
2022-10-17T05:44:20.836Z,4.77
2022-10-17T05:46:50.752Z,4.73
2022-10-17T05:49:32.666Z,3.93
2022-10-17T05:52:07.407Z,4.20
2022-10-17T05:54:35.838Z,5.03
2022-10-17T05:57:05.330Z,4.23
2022-10-17T05:59:33.363Z,3.97
2022-10-17T06:02:01.489Z,4.10
2022-10-17T06:04:29.437Z,4.80
2022-10-17T06:06:57.378Z,5.00
2022-10-17T06:09:25.792Z,4.40
2022-10-17T06:11:53.731Z,4.63
2022-10-17T06:14:23.099Z,4.83
2022-10-17T06:16:51.188Z,5.10
2022-10-17T06:19:19.217Z,4.53
2022-10-17T06:21:47.164Z,4.73
2022-10-17T06:24:15.297Z,5.13
2022-10-17T06:26:43.584Z,5.07
2022-10-17T06:29:11.717Z,4.80
2022-10-17T06:31:41.115Z,4.43
2022-10-17T06:34:09.085Z,4.53
2022-10-17T06:36:37.042Z,4.43
2022-10-17T06:39:05.305Z,4.57
2022-10-17T06:41:33.428Z,4.47
2022-10-17T06:44:01.475Z,4.97
2022-10-17T06:46:29.935Z,4.50
2022-10-17T06:49:00.876Z,5.00
2022-10-17T06:51:28.764Z,5.33
2022-10-17T06:53:58.412Z,5.10
2022-10-17T06:56:26.342Z,4.73
2022-10-17T06:58:54.791Z,5.00
2022-10-17T07:01:22.857Z,5.03
2022-10-17T07:03:50.887Z,4.87
2022-10-17T07:06:20.247Z,5.53
2022-10-17T07:08:48.458Z,5.23
2022-10-17T07:11:18.384Z,5.63
2022-10-17T07:13:46.775Z,5.73
2022-10-17T07:16:16.210Z,5.23
2022-10-17T07:18:44.504Z,6.13
2022-10-17T07:21:12.407Z,5.50
2022-10-17T07:23:42.132Z,5.30
2022-10-17T07:26:13.227Z,6.07
2022-10-17T07:28:47.226Z,5.50
2022-10-17T07:31:17.624Z,6.37
2022-10-17T07:36:19.997Z,6.33
2022-10-17T07:38:49.319Z,5.80
2022-10-17T07:41:19.473Z,6.20
2022-10-17T07:43:49.715Z,6.77
2022-10-17T07:46:17.779Z,6.47
2022-10-17T07:48:45.704Z,6.60
2022-10-17T07:51:13.964Z,7.00
2022-10-17T07:53:46.390Z,6.87
2022-10-17T07:56:18.494Z,6.93
2022-10-17T07:58:48.274Z,7.63
2022-10-17T08:01:16.408Z,7.43
2022-10-17T08:03:45.705Z,8.30
2022-10-17T08:06:14.551Z,7.27
2022-10-17T08:08:42.787Z,7.53
2022-10-17T08:11:12.553Z,7.50
2022-10-17T08:13:42.709Z,6.47
2022-10-17T08:16:13.030Z,6.80
2022-10-17T08:18:42.413Z,8.40
2022-10-17T08:21:11.177Z,6.95
2022-10-17T08:23:39.108Z,7.97
2022-10-17T08:26:10.846Z,7.20
2022-10-17T08:28:39.997Z,7.13
2022-10-17T08:31:11.773Z,7.05
2022-10-17T08:33:39.936Z,6.82
2022-10-17T08:36:09.477Z,7.43
2022-10-17T08:38:43.119Z,7.03
2022-10-17T08:41:16.918Z,7.28
2022-10-17T08:44:04.927Z,7.63
2022-10-17T08:46:37.511Z,7.47
2022-10-17T08:49:14.337Z,6.57
2022-10-17T08:51:49.997Z,9.95
2022-10-17T08:54:22.285Z,6.40
2022-10-17T08:56:52.193Z,6.57
2022-10-17T08:59:24.556Z,6.20
2022-10-17T09:02:02.616Z,6.40
2022-10-17T09:04:47.715Z,6.75
2022-10-17T09:07:23.547Z,6.32
2022-10-17T09:10:01.323Z,5.90
2022-10-17T09:12:37.875Z,6.22
2022-10-17T09:15:35.624Z,6.75
2022-10-17T09:18:12.789Z,6.28
2022-10-17T09:20:45.095Z,5.70
2022-10-17T09:23:17.196Z,5.85
2022-10-17T09:25:47.376Z,5.57
2022-10-17T09:28:19.863Z,5.60
2022-10-17T09:30:50.598Z,5.25
2022-10-17T09:33:34.549Z,4.60
2022-10-17T09:36:14.292Z,4.28
2022-10-17T09:38:45.449Z,4.13
2022-10-17T09:41:43.646Z,3.55
2022-10-17T09:44:17.739Z,4.82
2022-10-17T09:47:05.287Z,3.50
2022-10-17T09:49:36.361Z,3.92
2022-10-17T09:52:06.607Z,3.92
2022-10-17T09:54:43.446Z,3.05
2022-10-17T09:57:13.269Z,3.05
2022-10-17T09:59:43.166Z,2.92
2022-10-17T10:02:18.259Z,2.70
2022-10-17T10:05:06.859Z,2.47
2022-10-17T10:07:38.504Z,2.20
2022-10-17T10:10:09.631Z,2.30
2022-10-17T10:12:40.222Z,2.00
2022-10-17T10:15:37.746Z,1.92
2022-10-17T10:21:11.414Z,2.00
2022-10-17T10:23:41.220Z,1.63
2022-10-17T10:26:26.838Z,1.70
2022-10-17T10:28:59.088Z,1.65
2022-10-17T10:34:23.766Z,2.50
2022-10-17T10:37:04.591Z,2.38
2022-10-17T10:39:38.866Z,1.70
2022-10-17T10:42:09.309Z,1.83
2022-10-17T10:44:40.754Z,1.70
2022-10-17T10:47:17.363Z,1.98
2022-10-17T10:49:46.840Z,1.90
2022-10-17T10:52:27.416Z,1.65
2022-10-17T10:55:08.198Z,1.83
2022-10-17T10:57:37.957Z,1.10
2022-10-17T11:00:15.475Z,1.70
2022-10-17T11:02:49.780Z,1.63
2022-10-17T11:05:24.062Z,1.50
2022-10-17T11:08:01.207Z,1.50
2022-10-17T11:10:36.946Z,1.52
2022-10-17T11:13:11.893Z,1.52
2022-10-17T11:15:48.286Z,1.67
2022-10-17T11:18:25.649Z,1.60
2022-10-17T11:20:58.176Z,1.90
2022-10-17T11:23:34.537Z,1.70
2022-10-17T11:26:08.087Z,1.33
2022-10-17T11:28:36.044Z,1.50
2022-10-17T11:31:08.050Z,1.70
2022-10-17T11:33:45.442Z,1.90
2022-10-17T11:36:15.205Z,1.40
2022-10-17T11:38:50.410Z,1.88
2022-10-17T11:41:22.441Z,2.17
2022-10-17T11:43:55.682Z,2.15
2022-10-17T11:46:25.709Z,1.55
2022-10-17T11:49:12.354Z,1.50
2022-10-17T11:52:03.246Z,1.67
2022-10-17T11:54:37.690Z,1.52
2022-10-17T11:57:28.295Z,1.85
2022-10-17T12:00:09.752Z,1.67
2022-10-17T12:02:51.462Z,1.63
2022-10-17T12:05:30.312Z,2.10
2022-10-17T12:08:06.828Z,1.70
2022-10-17T12:10:48.641Z,2.58
2022-10-17T12:13:56.928Z,1.90
2022-10-17T12:16:48.449Z,1.83
2022-10-17T12:19:37.920Z,2.60
2022-10-17T12:22:18.449Z,1.58
2022-10-17T12:24:54.124Z,1.52
2022-10-17T12:27:37.372Z,1.75
2022-10-17T12:30:18.742Z,1.60
2022-10-17T12:33:07.395Z,1.80
2022-10-17T12:35:38.802Z,1.65
2022-10-17T12:38:25.288Z,1.60
2022-10-17T12:40:58.976Z,1.60
2022-10-17T12:43:47.209Z,2.10
2022-10-17T12:46:47.748Z,1.80
2022-10-17T12:49:45.554Z,2.67
2022-10-17T12:52:20.347Z,2.20
2022-10-17T12:55:00.632Z,1.63
2022-10-17T12:57:45.464Z,1.60
2022-10-17T13:00:20.444Z,1.60
2022-10-17T13:02:53.272Z,1.52
2022-10-17T13:05:29.798Z,1.65
2022-10-17T13:08:00.799Z,1.50
2022-10-17T13:10:33.126Z,1.58
2022-10-17T13:13:07.828Z,1.70
2022-10-17T13:15:37.919Z,1.50
2022-10-17T13:18:07.360Z,1.42
2022-10-17T13:20:35.413Z,1.88
2022-10-17T13:23:03.852Z,2.25
2022-10-17T13:25:31.949Z,1.58
2022-10-17T13:28:12.715Z,1.50
2022-10-17T13:30:41.058Z,1.40
2022-10-17T13:33:33.410Z,1.30
2022-10-17T13:36:04.050Z,1.83
2022-10-17T13:38:36.646Z,1.92
2022-10-17T13:41:34.919Z,2.55
2022-10-17T13:44:04.003Z,2.58
2022-10-17T13:46:39.163Z,1.95
2022-10-17T13:49:19.124Z,1.73
2022-10-17T13:51:49.129Z,1.70
2022-10-17T13:54:41.887Z,2.13
2022-10-17T13:57:20.626Z,1.63
2022-10-17T13:59:51.920Z,4.78
2022-10-17T14:02:22.386Z,1.80
2022-10-17T14:05:16.645Z,3.45
2022-10-17T14:08:10.813Z,2.10
2022-10-17T14:10:41.317Z,1.98
2022-10-17T14:13:18.790Z,1.80
2022-10-17T14:15:47.710Z,1.60
2022-10-17T14:18:21.257Z,2.00
2022-10-17T14:23:42.075Z,1.90
2022-10-17T14:26:16.716Z,1.80
2022-10-17T14:28:46.735Z,2.00
2022-10-17T14:31:31.440Z,3.13
2022-10-17T14:34:01.006Z,3.55
2022-10-17T14:36:39.761Z,2.08
2022-10-17T14:39:17.908Z,1.90
2022-10-17T14:41:48.477Z,1.75
2022-10-17T14:44:21.997Z,2.00
2022-10-17T14:46:54.065Z,2.15
2022-10-17T14:49:35.644Z,1.92
2022-10-17T14:52:59.573Z,2.03
2022-10-17T14:55:35.994Z,1.85
2022-10-17T14:58:17.199Z,1.95
2022-10-17T15:00:45.142Z,2.50
2022-10-17T15:03:13.878Z,9.63
2022-10-17T15:05:41.871Z,2.90
2022-10-17T15:08:14.913Z,2.17
2022-10-17T15:10:43.115Z,4.75
2022-10-17T15:13:29.031Z,2.85
2022-10-17T15:15:58.459Z,4.25
2022-10-17T15:18:26.431Z,3.65
2022-10-17T15:21:04.571Z,3.63
2022-10-17T15:23:36.051Z,3.67
2022-10-17T15:26:03.996Z,2.80
2022-10-17T15:28:31.872Z,6.70
2022-10-17T15:30:59.836Z,4.85
2022-10-17T15:33:27.808Z,3.88
2022-10-17T15:35:55.745Z,3.75
2022-10-17T15:38:23.683Z,3.17
2022-10-17T15:40:53.170Z,2.40
2022-10-17T15:43:21.070Z,2.38
2022-10-17T15:45:49.162Z,2.47
2022-10-17T15:48:21.087Z,2.45
2022-10-17T15:50:50.341Z,2.45
2022-10-17T15:53:18.794Z,2.10
2022-10-17T15:55:50.145Z,2.65
2022-10-17T15:58:20.663Z,4.80
2022-10-17T16:00:49.496Z,3.67
2022-10-17T16:03:17.586Z,2.67
2022-10-17T16:05:45.551Z,2.30
2022-10-17T16:08:13.448Z,2.38
2022-10-17T16:10:42.159Z,2.70
2022-10-17T16:13:17.544Z,2.83
2022-10-17T16:15:47.200Z,2.65
2022-10-17T16:18:15.089Z,2.50
2022-10-17T16:20:43.147Z,2.28
2022-10-17T16:23:12.417Z,2.20
2022-10-17T16:25:41.314Z,2.35
2022-10-17T16:28:09.619Z,4.60
2022-10-17T16:30:44.977Z,2.90
2022-10-17T16:33:14.698Z,2.67
2022-10-17T16:35:43.260Z,2.75
2022-10-17T16:38:11.443Z,2.63
2022-10-17T16:40:40.248Z,3.28
2022-10-17T16:43:08.563Z,3.25
2022-10-17T16:45:37.572Z,4.30
2022-10-17T16:48:05.852Z,24.92
2022-10-17T16:50:35.732Z,5.97
2022-10-17T16:53:04.206Z,5.05
2022-10-17T16:55:32.199Z,5.13
2022-10-17T16:58:01.557Z,5.07
2022-10-17T17:00:29.614Z,4.00
2022-10-17T17:02:57.641Z,3.88
2022-10-17T17:05:25.600Z,5.22
2022-10-17T17:07:55.942Z,4.30
2022-10-17T17:10:23.867Z,3.95
2022-10-17T17:12:51.844Z,8.32
2022-10-17T17:15:20.063Z,4.38
2022-10-17T17:17:55.579Z,4.15
2022-10-17T17:20:23.985Z,4.28
2022-10-17T17:22:52.425Z,4.43
2022-10-17T17:25:22.654Z,4.03
2022-10-17T17:27:50.579Z,4.97
2022-10-17T17:30:19.794Z,5.20
2022-10-17T17:32:47.855Z,4.85
2022-10-17T17:35:15.949Z,4.82
2022-10-17T17:37:44.125Z,4.72
2022-10-17T17:40:12.915Z,7.78
2022-10-17T17:42:42.874Z,3.65
2022-10-17T17:45:12.153Z,5.18
2022-10-17T17:47:40.066Z,4.05
2022-10-17T17:50:08.740Z,3.85
2022-10-17T17:52:37.211Z,4.20
2022-10-17T17:55:05.653Z,3.95
2022-10-17T17:57:33.733Z,5.20
2022-10-17T18:00:03.210Z,3.97
2022-10-17T18:02:31.424Z,3.95
2022-10-17T18:04:59.531Z,3.65
2022-10-17T18:07:27.523Z,4.43
2022-10-17T18:09:57.090Z,3.85
2022-10-17T18:12:24.999Z,4.45
2022-10-17T18:14:54.153Z,4.00
2022-10-17T18:17:23.673Z,4.15
2022-10-17T18:19:51.978Z,5.05
2022-10-17T18:22:20.016Z,4.68
2022-10-17T18:24:47.912Z,3.97
2022-10-17T18:27:16.227Z,4.47
2022-10-17T18:29:45.792Z,3.60
2022-10-17T18:32:14.001Z,4.05
2022-10-17T18:34:43.439Z,3.50
2022-10-17T18:37:11.484Z,3.78
2022-10-17T18:39:39.590Z,3.80
2022-10-17T18:42:07.967Z,3.95
2022-10-17T18:44:36.149Z,3.45
2022-10-17T18:47:04.627Z,3.50
2022-10-17T18:49:32.859Z,2.92
2022-10-17T18:52:02.276Z,3.20
2022-10-17T18:54:32.506Z,5.30
2022-10-17T18:57:00.738Z,3.93
2022-10-17T18:59:29.017Z,4.65
2022-10-17T19:01:57.081Z,4.13
2022-10-17T19:04:25.121Z,3.47
2022-10-17T19:06:53.080Z,3.07
2022-10-17T19:09:22.390Z,2.80
2022-10-17T19:11:50.268Z,3.30
2022-10-17T19:14:18.207Z,3.17
2022-10-17T19:16:47.789Z,2.70
2022-10-17T19:19:19.328Z,3.00
2022-10-17T19:21:48.004Z,2.73
2022-10-17T19:24:19.072Z,2.83
2022-10-17T19:26:50.834Z,3.67
2022-10-17T19:29:19.479Z,3.13
2022-10-17T19:31:49.045Z,3.10
2022-10-17T19:34:18.086Z,2.33
2022-10-17T19:36:46.606Z,2.40
2022-10-17T19:39:17.140Z,2.30
2022-10-17T19:41:47.456Z,2.73
2022-10-17T19:44:17.293Z,2.27
2022-10-17T19:46:46.939Z,2.30
2022-10-17T19:49:15.377Z,2.03
2022-10-17T19:51:43.515Z,2.27
2022-10-17T19:54:11.593Z,2.10
2022-10-17T19:56:40.423Z,2.33
2022-10-17T19:59:09.323Z,2.87
2022-10-17T20:01:39.783Z,2.30
2022-10-17T20:04:10.741Z,3.37
2022-10-17T20:06:41.061Z,2.30
2022-10-17T20:09:12.366Z,1.93
2022-10-17T20:11:44.123Z,2.10
2022-10-17T20:14:13.242Z,1.83
2022-10-17T20:16:44.715Z,1.97
2022-10-17T20:19:14.556Z,2.20
2022-10-17T20:21:44.342Z,2.13
2022-10-17T20:24:14.265Z,2.10
2022-10-17T20:26:42.734Z,2.77
2022-10-17T20:29:14.846Z,2.30
2022-10-17T20:31:45.794Z,2.17
2022-10-17T20:34:16.462Z,2.27
2022-10-17T20:36:44.951Z,2.20
2022-10-17T20:39:14.982Z,1.93
2022-10-17T20:41:43.728Z,2.80
2022-10-17T20:44:12.483Z,2.67
2022-10-17T20:46:52.694Z,2.13
2022-10-17T20:49:30.201Z,2.47
2022-10-17T20:51:58.372Z,2.47
2022-10-17T20:54:27.750Z,2.40
2022-10-17T20:56:58.627Z,2.57
2022-10-17T20:59:29.048Z,2.40
2022-10-17T21:01:57.014Z,2.50
2022-10-17T21:04:45.310Z,2.47
2022-10-17T21:07:14.244Z,2.37
2022-10-17T21:09:42.322Z,2.33
2022-10-17T21:12:10.265Z,2.30
2022-10-17T21:14:38.265Z,2.10
2022-10-17T21:17:06.405Z,2.30
2022-10-17T21:19:34.915Z,2.43
2022-10-17T21:22:04.281Z,2.30
2022-10-17T21:24:34.386Z,2.40
2022-10-17T21:27:02.486Z,2.67
2022-10-17T21:29:30.671Z,3.20
2022-10-17T21:31:58.803Z,2.33
2022-10-17T21:34:27.847Z,2.67
2022-10-17T21:36:56.015Z,2.70
2022-10-17T21:39:24.941Z,3.60
2022-10-17T21:41:55.153Z,4.47
2022-10-17T21:44:24.657Z,3.37
2022-10-17T21:46:53.557Z,4.80
2022-10-17T21:49:24.509Z,5.73
2022-10-17T21:51:53.177Z,6.90
2022-10-17T21:54:23.057Z,6.47
2022-10-17T21:56:51.513Z,5.17
2022-10-17T21:59:23.601Z,6.60
2022-10-17T22:01:51.794Z,6.20
2022-10-17T22:04:20.732Z,6.60
2022-10-17T22:06:52.379Z,6.80
2022-10-17T22:09:22.869Z,6.67
2022-10-17T22:11:52.680Z,6.63
2022-10-17T22:14:23.814Z,7.13
2022-10-17T22:16:52.084Z,6.83
2022-10-17T22:19:24.791Z,6.50
2022-10-17T22:21:52.783Z,5.63
2022-10-17T22:24:22.590Z,6.10
2022-10-17T22:26:50.998Z,6.30
2022-10-17T22:29:19.003Z,5.53
2022-10-17T22:31:48.366Z,5.90
2022-10-17T22:34:18.115Z,5.43
2022-10-17T22:36:47.735Z,6.43
2022-10-17T22:39:15.834Z,5.57
2022-10-17T22:41:43.727Z,5.33
2022-10-17T22:44:11.600Z,5.93
2022-10-17T22:46:39.548Z,5.93
2022-10-17T22:49:08.866Z,6.27
2022-10-17T22:51:36.723Z,5.27
2022-10-17T22:54:04.631Z,5.50
2022-10-17T22:56:35.228Z,6.00
2022-10-17T22:59:03.344Z,5.53
2022-10-17T23:01:31.318Z,5.50
2022-10-17T23:03:59.302Z,5.90
2022-10-17T23:06:28.612Z,6.13
2022-10-17T23:08:56.531Z,6.17
2022-10-17T23:11:24.557Z,6.20
2022-10-17T23:13:52.504Z,6.80
2022-10-17T23:16:20.395Z,6.70
2022-10-17T23:18:48.324Z,6.17
2022-10-17T23:21:16.202Z,5.60
2022-10-17T23:23:45.440Z,6.37
2022-10-17T23:26:15.315Z,5.90
2022-10-17T23:28:44.106Z,5.67
2022-10-17T23:31:14.815Z,6.30
2022-10-17T23:33:44.967Z,6.40
2022-10-17T23:36:14.351Z,5.87
2022-10-17T23:38:43.272Z,6.93
2022-10-17T23:41:13.264Z,6.40
2022-10-17T23:43:41.475Z,6.50
2022-10-17T23:46:10.032Z,6.17
2022-10-17T23:48:38.641Z,6.47
2022-10-17T23:51:07.135Z,6.40
2022-10-17T23:53:34.986Z,6.23
2022-10-17T23:56:03.097Z,5.80
2022-10-17T23:58:32.572Z,5.93
